sensor_id;sensor_type;location;lat;lon;timestamp;pressure;altitude;pressure_sealevel;temperature;humidity
23339;BME280;11841;49.368;20.962;2023-02-16T00:01:11;96793.41;;;-1.08;79.31
23339;BME280;11841;49.368;20.962;2023-02-16T00:03:39;96792.63;;;-1.09;79.73
23339;BME280;11841;49.368;20.962;2023-02-16T00:06:06;96781.13;;;-1.06;79.82
23339;BME280;11841;49.368;20.962;2023-02-16T00:08:33;96781.13;;;-1.06;80.13
23339;BME280;11841;49.368;20.962;2023-02-16T00:10:59;96783.00;;;-1.08;79.19
23339;BME280;11841;49.368;20.962;2023-02-16T00:13:44;96777.00;;;-1.09;79.41
23339;BME280;11841;49.368;20.962;2023-02-16T00:16:14;96785.03;;;-1.12;79.37
23339;BME280;11841;49.368;20.962;2023-02-16T00:18:41;96784.22;;;-1.12;79.71
23339;BME280;11841;49.368;20.962;2023-02-16T00:21:07;96789.53;;;-1.14;79.23
23339;BME280;11841;49.368;20.962;2023-02-16T00:23:33;96785.41;;;-1.16;79.38
23339;BME280;11841;49.368;20.962;2023-02-16T00:26:00;96783.63;;;-1.16;78.96
23339;BME280;11841;49.368;20.962;2023-02-16T00:28:26;96784.22;;;-1.24;78.90
23339;BME280;11841;49.368;20.962;2023-02-16T00:30:53;96782.44;;;-1.23;79.55
23339;BME280;11841;49.368;20.962;2023-02-16T00:33:20;96783.16;;;-1.21;79.50
23339;BME280;11841;49.368;20.962;2023-02-16T00:35:46;96779.00;;;-1.24;79.04
23339;BME280;11841;49.368;20.962;2023-02-16T00:38:13;96783.41;;;-1.24;79.55
23339;BME280;11841;49.368;20.962;2023-02-16T00:40:40;96773.94;;;-1.25;79.05
23339;BME280;11841;49.368;20.962;2023-02-16T00:43:07;96777.94;;;-1.32;78.84
23339;BME280;11841;49.368;20.962;2023-02-16T00:45:35;96770.84;;;-1.30;79.29
23339;BME280;11841;49.368;20.962;2023-02-16T00:48:02;96764.72;;;-1.29;79.20
23339;BME280;11841;49.368;20.962;2023-02-16T00:50:30;96764.00;;;-1.31;78.73
23339;BME280;11841;49.368;20.962;2023-02-16T00:52:57;96766.94;;;-1.25;79.28
23339;BME280;11841;49.368;20.962;2023-02-16T00:55:25;96762.69;;;-1.26;78.93
23339;BME280;11841;49.368;20.962;2023-02-16T01:00:22;96754.78;;;-1.35;78.62
23339;BME280;11841;49.368;20.962;2023-02-16T01:02:50;96753.34;;;-1.39;78.91
23339;BME280;11841;49.368;20.962;2023-02-16T01:05:17;96748.38;;;-1.42;79.35
23339;BME280;11841;49.368;20.962;2023-02-16T01:07:44;96748.38;;;-1.42;79.43
23339;BME280;11841;49.368;20.962;2023-02-16T01:10:29;96747.94;;;-1.36;80.33
23339;BME280;11841;49.368;20.962;2023-02-16T01:13:15;96749.09;;;-1.29;79.94
23339;BME280;11841;49.368;20.962;2023-02-16T01:15:42;96743.91;;;-1.29;80.46
23339;BME280;11841;49.368;20.962;2023-02-16T01:18:11;96738.91;;;-1.32;80.51
23339;BME280;11841;49.368;20.962;2023-02-16T01:20:38;96733.25;;;-1.26;80.99
23339;BME280;11841;49.368;20.962;2023-02-16T01:23:04;96736.06;;;-1.18;81.11
23339;BME280;11841;49.368;20.962;2023-02-16T01:25:31;96733.69;;;-1.10;80.89
23339;BME280;11841;49.368;20.962;2023-02-16T01:27:57;96731.56;;;-1.05;80.67
23339;BME280;11841;49.368;20.962;2023-02-16T01:30:24;96731.56;;;-1.05;80.29
23339;BME280;11841;49.368;20.962;2023-02-16T01:32:51;96732.88;;;-1.10;80.56
23339;BME280;11841;49.368;20.962;2023-02-16T01:35:18;96729.81;;;-1.15;80.76
23339;BME280;11841;49.368;20.962;2023-02-16T01:37:45;96725.41;;;-1.15;81.17
23339;BME280;11841;49.368;20.962;2023-02-16T01:40:18;96720.69;;;-1.10;81.80
23339;BME280;11841;49.368;20.962;2023-02-16T01:42:49;96713.91;;;-1.01;81.37
23339;BME280;11841;49.368;20.962;2023-02-16T01:45:18;96712.16;;;-1.01;81.25
23339;BME280;11841;49.368;20.962;2023-02-16T01:47:51;96713.13;;;-1.02;81.78
23339;BME280;11841;49.368;20.962;2023-02-16T01:50:20;96714.88;;;-1.02;82.45
23339;BME280;11841;49.368;20.962;2023-02-16T01:52:52;96706.94;;;-1.01;82.64
23339;BME280;11841;49.368;20.962;2023-02-16T02:00:15;96698.16;;;-0.89;82.37
23339;BME280;11841;49.368;20.962;2023-02-16T02:02:47;96693.66;;;-0.87;82.68
23339;BME280;11841;49.368;20.962;2023-02-16T02:05:20;96693.28;;;-0.82;82.36
23339;BME280;11841;49.368;20.962;2023-02-16T02:10:32;96695.63;;;-0.68;82.24
23339;BME280;11841;49.368;20.962;2023-02-16T02:15:29;96686.00;;;-0.68;82.28
23339;BME280;11841;49.368;20.962;2023-02-16T02:17:56;96687.28;;;-0.62;82.95
23339;BME280;11841;49.368;20.962;2023-02-16T02:28:32;96676.69;;;-0.50;82.70
23339;BME280;11841;49.368;20.962;2023-02-16T02:31:08;96667.09;;;-0.49;83.14
23339;BME280;11841;49.368;20.962;2023-02-16T02:44:11;96664.44;;;-0.38;84.20
23339;BME280;11841;49.368;20.962;2023-02-16T02:46:40;96669.97;;;-0.32;84.17
23339;BME280;11841;49.368;20.962;2023-02-16T02:49:06;96665.91;;;-0.25;84.16
23339;BME280;11841;49.368;20.962;2023-02-16T02:51:33;96663.75;;;-0.20;84.04
23339;BME280;11841;49.368;20.962;2023-02-16T02:56:55;96662.78;;;-0.19;83.91
23339;BME280;11841;49.368;20.962;2023-02-16T02:59:43;96661.56;;;-0.15;84.27
23339;BME280;11841;49.368;20.962;2023-02-16T03:02:30;96666.78;;;-0.15;85.66
23339;BME280;11841;49.368;20.962;2023-02-16T03:04:57;96661.31;;;-0.12;85.63
23339;BME280;11841;49.368;20.962;2023-02-16T03:07:25;96665.31;;;-0.08;85.66
23339;BME280;11841;49.368;20.962;2023-02-16T03:10:18;96667.41;;;-0.02;85.24
23339;BME280;11841;49.368;20.962;2023-02-16T03:13:05;96656.59;;;0.03;85.17
23339;BME280;11841;49.368;20.962;2023-02-16T03:15:34;96652.63;;;0.09;85.38
23339;BME280;11841;49.368;20.962;2023-02-16T03:18:01;96653.19;;;0.12;85.26
23339;BME280;11841;49.368;20.962;2023-02-16T03:20:47;96652.00;;;0.16;85.38
23339;BME280;11841;49.368;20.962;2023-02-16T03:23:32;96644.88;;;0.18;85.60
23339;BME280;11841;49.368;20.962;2023-02-16T03:26:17;96632.41;;;0.22;85.82
23339;BME280;11841;49.368;20.962;2023-02-16T03:29:03;96641.50;;;0.27;85.61
23339;BME280;11841;49.368;20.962;2023-02-16T03:31:44;96636.94;;;0.29;86.89
23339;BME280;11841;49.368;20.962;2023-02-16T03:34:11;96636.81;;;0.31;88.08
23339;BME280;11841;49.368;20.962;2023-02-16T03:36:39;96640.38;;;0.30;90.36
23339;BME280;11841;49.368;20.962;2023-02-16T03:39:06;96642.22;;;0.39;88.94
23339;BME280;11841;49.368;20.962;2023-02-16T03:41:34;96638.50;;;0.41;89.69
23339;BME280;11841;49.368;20.962;2023-02-16T03:44:03;96636.59;;;0.43;89.11
23339;BME280;11841;49.368;20.962;2023-02-16T03:46:30;96636.47;;;0.45;89.27
23339;BME280;11841;49.368;20.962;2023-02-16T03:48:56;96641.41;;;0.48;88.72
23339;BME280;11841;49.368;20.962;2023-02-16T03:51:23;96642.09;;;0.50;89.55
23339;BME280;11841;49.368;20.962;2023-02-16T03:53:50;96650.34;;;0.55;88.64
23339;BME280;11841;49.368;20.962;2023-02-16T03:56:16;96644.19;;;0.56;89.03
23339;BME280;11841;49.368;20.962;2023-02-16T03:58:43;96648.44;;;0.57;89.35
23339;BME280;11841;49.368;20.962;2023-02-16T04:01:09;96642.94;;;0.60;89.06
23339;BME280;11841;49.368;20.962;2023-02-16T04:03:36;96644.34;;;0.64;89.05
23339;BME280;11841;49.368;20.962;2023-02-16T04:06:03;96651.78;;;0.68;88.95
23339;BME280;11841;49.368;20.962;2023-02-16T04:08:29;96641.06;;;0.71;88.91
23339;BME280;11841;49.368;20.962;2023-02-16T04:10:56;96639.69;;;0.77;88.54
23339;BME280;11841;49.368;20.962;2023-02-16T04:13:23;96632.69;;;0.77;88.95
23339;BME280;11841;49.368;20.962;2023-02-16T04:15:49;96635.03;;;0.80;89.24
23339;BME280;11841;49.368;20.962;2023-02-16T04:18:16;96633.13;;;0.82;89.09
23339;BME280;11841;49.368;20.962;2023-02-16T04:20:42;96631.06;;;0.86;89.04
23339;BME280;11841;49.368;20.962;2023-02-16T04:23:09;96635.88;;;0.90;88.79
23339;BME280;11841;49.368;20.962;2023-02-16T04:25:35;96637.53;;;0.91;88.88
23339;BME280;11841;49.368;20.962;2023-02-16T04:28:02;96633.41;;;0.89;89.76
23339;BME280;11841;49.368;20.962;2023-02-16T04:30:29;96629.84;;;0.90;90.22
23339;BME280;11841;49.368;20.962;2023-02-16T04:32:56;96623.66;;;0.91;90.20
23339;BME280;11841;49.368;20.962;2023-02-16T04:35:24;96622.69;;;0.92;90.24
23339;BME280;11841;49.368;20.962;2023-02-16T04:37:50;96629.56;;;0.93;90.73
23339;BME280;11841;49.368;20.962;2023-02-16T04:40:17;96628.88;;;0.91;91.16
23339;BME280;11841;49.368;20.962;2023-02-16T04:42:44;96628.19;;;0.89;91.03
23339;BME280;11841;49.368;20.962;2023-02-16T04:45:11;96630.13;;;0.96;90.69
23339;BME280;11841;49.368;20.962;2023-02-16T04:47:37;96623.50;;;1.02;90.35
23339;BME280;11841;49.368;20.962;2023-02-16T04:50:04;96624.34;;;1.02;90.66
23339;BME280;11841;49.368;20.962;2023-02-16T04:52:31;96632.31;;;1.01;90.62
23339;BME280;11841;49.368;20.962;2023-02-16T04:54:57;96632.88;;;1.04;90.43
23339;BME280;11841;49.368;20.962;2023-02-16T04:57:24;96628.22;;;1.08;90.40
23339;BME280;11841;49.368;20.962;2023-02-16T04:59:50;96627.22;;;1.09;90.43
23339;BME280;11841;49.368;20.962;2023-02-16T05:02:17;96624.63;;;1.09;90.52
23339;BME280;11841;49.368;20.962;2023-02-16T05:04:43;96629.03;;;1.08;90.29
23339;BME280;11841;49.368;20.962;2023-02-16T05:07:10;96630.53;;;1.11;90.41
23339;BME280;11841;49.368;20.962;2023-02-16T05:09:36;96625.31;;;1.11;90.38
23339;BME280;11841;49.368;20.962;2023-02-16T05:12:03;96628.34;;;1.16;90.11
23339;BME280;11841;49.368;20.962;2023-02-16T05:14:48;96611.44;;;1.10;90.85
23339;BME280;11841;49.368;20.962;2023-02-16T05:19:42;96628.34;;;1.16;90.32
23339;BME280;11841;49.368;20.962;2023-02-16T05:22:09;96627.13;;;1.20;90.33
23339;BME280;11841;49.368;20.962;2023-02-16T05:24:36;96634.25;;;1.27;89.84
23339;BME280;11841;49.368;20.962;2023-02-16T05:27:03;96626.03;;;1.32;89.54
23339;BME280;11841;49.368;20.962;2023-02-16T05:29:30;96637.28;;;1.33;89.51
23339;BME280;11841;49.368;20.962;2023-02-16T05:31:56;96638.81;;;1.35;89.15
23339;BME280;11841;49.368;20.962;2023-02-16T05:34:23;96637.97;;;1.35;89.41
23339;BME280;11841;49.368;20.962;2023-02-16T05:36:50;96637.84;;;1.36;88.82
23339;BME280;11841;49.368;20.962;2023-02-16T05:39:16;96641.13;;;1.38;89.04
23339;BME280;11841;49.368;20.962;2023-02-16T05:41:43;96649.13;;;1.37;89.12
23339;BME280;11841;49.368;20.962;2023-02-16T05:44:10;96648.97;;;1.38;88.97
23339;BME280;11841;49.368;20.962;2023-02-16T05:46:37;96635.06;;;1.38;88.96
23339;BME280;11841;49.368;20.962;2023-02-16T05:49:04;96646.38;;;1.38;89.05
23339;BME280;11841;49.368;20.962;2023-02-16T05:51:31;96637.84;;;1.36;89.45
23339;BME280;11841;49.368;20.962;2023-02-16T05:53:57;96642.13;;;1.37;89.70
23339;BME280;11841;49.368;20.962;2023-02-16T05:56:24;96637.69;;;1.38;89.18
23339;BME280;11841;49.368;20.962;2023-02-16T05:58:50;96635.91;;;1.38;89.56
23339;BME280;11841;49.368;20.962;2023-02-16T06:01:18;96635.34;;;1.35;89.82
23339;BME280;11841;49.368;20.962;2023-02-16T06:03:44;96640.19;;;1.39;89.41
23339;BME280;11841;49.368;20.962;2023-02-16T06:06:11;96636.47;;;1.42;89.37
23339;BME280;11841;49.368;20.962;2023-02-16T06:08:38;96635.38;;;1.44;89.56
23339;BME280;11841;49.368;20.962;2023-02-16T06:11:05;96629.03;;;1.37;89.82
23339;BME280;11841;49.368;20.962;2023-02-16T06:13:54;96633.31;;;1.29;90.22
23339;BME280;11841;49.368;20.962;2023-02-16T06:16:25;96622.72;;;1.30;90.79
23339;BME280;11841;49.368;20.962;2023-02-16T06:18:52;96637.28;;;1.33;90.33
23339;BME280;11841;49.368;20.962;2023-02-16T06:21:19;96634.41;;;1.36;90.55
23339;BME280;11841;49.368;20.962;2023-02-16T06:23:46;96634.00;;;1.40;89.98
23339;BME280;11841;49.368;20.962;2023-02-16T06:26:13;96637.00;;;1.45;89.87
23339;BME280;11841;49.368;20.962;2023-02-16T06:28:40;96640.59;;;1.44;90.01
23339;BME280;11841;49.368;20.962;2023-02-16T06:31:06;96640.84;;;1.41;90.67
23339;BME280;11841;49.368;20.962;2023-02-16T06:33:33;96638.41;;;1.30;91.06
23339;BME280;11841;49.368;20.962;2023-02-16T06:35:59;96635.09;;;1.28;91.19
23339;BME280;11841;49.368;20.962;2023-02-16T06:38:26;96630.97;;;1.35;90.76
23339;BME280;11841;49.368;20.962;2023-02-16T06:40:53;96629.03;;;1.37;91.39
23339;BME280;11841;49.368;20.962;2023-02-16T06:43:19;96630.97;;;1.35;91.18
23339;BME280;11841;49.368;20.962;2023-02-16T06:45:46;96630.41;;;1.32;91.34
23339;BME280;11841;49.368;20.962;2023-02-16T06:48:13;96628.22;;;1.37;91.40
23339;BME280;11841;49.368;20.962;2023-02-16T06:50:39;96628.63;;;1.42;91.53
23339;BME280;11841;49.368;20.962;2023-02-16T06:53:06;96631.09;;;1.43;91.58
23339;BME280;11841;49.368;20.962;2023-02-16T06:55:32;96624.91;;;1.44;91.72
23339;BME280;11841;49.368;20.962;2023-02-16T06:58:05;96628.47;;;1.43;91.37
23339;BME280;11841;49.368;20.962;2023-02-16T07:00:32;96624.75;;;1.36;92.33
23339;BME280;11841;49.368;20.962;2023-02-16T07:02:59;96634.66;;;1.33;92.65
23339;BME280;11841;49.368;20.962;2023-02-16T07:05:26;96626.28;;;1.39;92.39
23339;BME280;11841;49.368;20.962;2023-02-16T07:07:53;96625.72;;;1.45;92.68
23339;BME280;11841;49.368;20.962;2023-02-16T07:10:19;96626.28;;;1.48;92.60
23339;BME280;11841;49.368;20.962;2023-02-16T07:12:46;96635.22;;;1.55;92.24
23339;BME280;11841;49.368;20.962;2023-02-16T07:15:13;96626.84;;;1.61;91.90
23339;BME280;11841;49.368;20.962;2023-02-16T07:17:39;96621.59;;;1.61;92.19
23339;BME280;11841;49.368;20.962;2023-02-16T07:20:08;96627.63;;;1.62;92.15
23339;BME280;11841;49.368;20.962;2023-02-16T07:22:37;96620.47;;;1.64;92.13
23339;BME280;11841;49.368;20.962;2023-02-16T07:25:03;96627.75;;;1.70;92.22
23339;BME280;11841;49.368;20.962;2023-02-16T07:27:30;96624.03;;;1.72;92.13
23339;BME280;11841;49.368;20.962;2023-02-16T07:29:56;96618.13;;;1.70;92.32
23339;BME280;11841;49.368;20.962;2023-02-16T07:32:23;96617.44;;;1.68;92.17
23339;BME280;11841;49.368;20.962;2023-02-16T07:34:49;96620.63;;;1.62;92.44
23339;BME280;11841;49.368;20.962;2023-02-16T07:37:16;96620.22;;;1.57;92.75
23339;BME280;11841;49.368;20.962;2023-02-16T07:39:42;96613.31;;;1.56;93.53
23339;BME280;11841;49.368;20.962;2023-02-16T07:42:09;96614.72;;;1.60;93.47
23339;BME280;11841;49.368;20.962;2023-02-16T07:44:35;96616.91;;;1.55;94.03
23339;BME280;11841;49.368;20.962;2023-02-16T07:47:01;96619.41;;;1.47;93.94
23339;BME280;11841;49.368;20.962;2023-02-16T07:49:28;96617.75;;;1.46;94.05
23339;BME280;11841;49.368;20.962;2023-02-16T07:51:54;96621.03;;;1.48;93.93
23339;BME280;11841;49.368;20.962;2023-02-16T07:54:21;96610.19;;;1.53;94.04
23339;BME280;11841;49.368;20.962;2023-02-16T07:56:47;96605.63;;;1.55;94.44
23339;BME280;11841;49.368;20.962;2023-02-16T07:59:14;96613.91;;;1.50;94.81
23339;BME280;11841;49.368;20.962;2023-02-16T08:01:40;96614.06;;;1.39;95.96
23339;BME280;11841;49.368;20.962;2023-02-16T08:04:07;96612.50;;;1.46;95.87
23339;BME280;11841;49.368;20.962;2023-02-16T08:06:34;96613.91;;;1.50;95.68
23339;BME280;11841;49.368;20.962;2023-02-16T08:09:00;96617.75;;;1.46;96.02
23339;BME280;11841;49.368;20.962;2023-02-16T08:11:27;96615.84;;;1.39;96.61
23339;BME280;11841;49.368;20.962;2023-02-16T08:13:54;96614.19;;;1.38;96.25
23339;BME280;11841;49.368;20.962;2023-02-16T08:16:21;96611.84;;;1.35;96.85
23339;BME280;11841;49.368;20.962;2023-02-16T08:18:48;96609.50;;;1.41;96.79
23339;BME280;11841;49.368;20.962;2023-02-16T08:21:17;96607.03;;;1.40;96.66
23339;BME280;11841;49.368;20.962;2023-02-16T08:23:45;96600.56;;;1.34;97.01
23339;BME280;11841;49.368;20.962;2023-02-16T08:26:15;96606.88;;;1.41;96.77
23339;BME280;11841;49.368;20.962;2023-02-16T08:28:42;96614.72;;;1.41;96.84
23339;BME280;11841;49.368;20.962;2023-02-16T08:31:13;96609.38;;;1.33;97.56
23339;BME280;11841;49.368;20.962;2023-02-16T08:33:40;96607.31;;;1.37;97.69
23339;BME280;11841;49.368;20.962;2023-02-16T08:36:06;96606.75;;;1.33;97.52
23339;BME280;11841;49.368;20.962;2023-02-16T08:38:36;96617.50;;;1.30;97.90
23339;BME280;11841;49.368;20.962;2023-02-16T08:41:02;96615.00;;;1.38;97.80
23339;BME280;11841;49.368;20.962;2023-02-16T08:43:29;96617.50;;;1.49;97.49
23339;BME280;11841;49.368;20.962;2023-02-16T08:45:55;96601.81;;;1.49;97.10
23339;BME280;11841;49.368;20.962;2023-02-16T08:48:22;96601.25;;;1.55;96.75
23339;BME280;11841;49.368;20.962;2023-02-16T08:50:48;96611.00;;;1.63;96.50
23339;BME280;11841;49.368;20.962;2023-02-16T08:53:21;96608.66;;;1.60;96.59
23339;BME280;11841;49.368;20.962;2023-02-16T08:55:55;96615.94;;;1.66;96.19
23339;BME280;11841;49.368;20.962;2023-02-16T08:58:22;96611.00;;;1.63;96.27
23339;BME280;11841;49.368;20.962;2023-02-16T09:00:49;96610.03;;;1.64;95.97
23339;BME280;11841;49.368;20.962;2023-02-16T09:03:16;96612.78;;;1.62;96.05
23339;BME280;11841;49.368;20.962;2023-02-16T09:05:45;96609.47;;;1.60;96.16
23339;BME280;11841;49.368;20.962;2023-02-16T09:08:12;96613.19;;;1.67;96.18
23339;BME280;11841;49.368;20.962;2023-02-16T09:10:39;96606.16;;;1.77;95.71
23339;BME280;11841;49.368;20.962;2023-02-16T09:13:06;96601.72;;;1.87;95.34
23339;BME280;11841;49.368;20.962;2023-02-16T09:15:35;96615.03;;;1.94;95.18
23339;BME280;11841;49.368;20.962;2023-02-16T09:18:03;96607.88;;;1.96;94.58
23339;BME280;11841;49.368;20.962;2023-02-16T09:20:30;96609.41;;;1.98;94.79
23339;BME280;11841;49.368;20.962;2023-02-16T09:22:56;96604.28;;;2.06;94.36
23339;BME280;11841;49.368;20.962;2023-02-16T09:25:23;96601.16;;;1.93;94.77
23339;BME280;11841;49.368;20.962;2023-02-16T09:27:50;96599.94;;;1.88;94.47
23339;BME280;11841;49.368;20.962;2023-02-16T09:30:16;96604.72;;;1.92;94.82
23339;BME280;11841;49.368;20.962;2023-02-16T09:32:43;96597.31;;;1.88;94.83
23339;BME280;11841;49.368;20.962;2023-02-16T09:35:10;96607.78;;;1.88;94.73
23339;BME280;11841;49.368;20.962;2023-02-16T09:37:36;96606.00;;;1.88;95.43
23339;BME280;11841;49.368;20.962;2023-02-16T09:40:03;96618.50;;;1.94;95.12
23339;BME280;11841;49.368;20.962;2023-02-16T09:47:27;96598.66;;;1.92;95.37
23339;BME280;11841;49.368;20.962;2023-02-16T09:49:57;96596.88;;;2.02;95.08
23339;BME280;11841;49.368;20.962;2023-02-16T09:52:29;96596.03;;;2.01;94.29
23339;BME280;11841;49.368;20.962;2023-02-16T09:54:58;96590.50;;;2.04;94.73
23339;BME280;11841;49.368;20.962;2023-02-16T10:10:02;96595.78;;;2.31;93.21
23339;BME280;11841;49.368;20.962;2023-02-16T10:12:31;96601.84;;;2.32;93.36
23339;BME280;11841;49.368;20.962;2023-02-16T10:14:59;96584.75;;;2.37;93.02
23339;BME280;11841;49.368;20.962;2023-02-16T10:22:31;96593.53;;;2.36;93.07
23339;BME280;11841;49.368;20.962;2023-02-16T10:25:00;96591.53;;;2.30;92.57
23339;BME280;11841;49.368;20.962;2023-02-16T10:27:31;96589.56;;;2.32;93.22
23339;BME280;11841;49.368;20.962;2023-02-16T10:30:05;96581.84;;;2.31;93.32
23339;BME280;11841;49.368;20.962;2023-02-16T10:32:37;96580.31;;;2.38;92.91
23339;BME280;11841;49.368;20.962;2023-02-16T10:35:13;96578.63;;;2.46;93.39
23339;BME280;11841;49.368;20.962;2023-02-16T10:42:57;96567.44;;;2.72;92.11
23339;BME280;11841;49.368;20.962;2023-02-16T10:48:12;96567.81;;;2.77;91.78
23339;BME280;11841;49.368;20.962;2023-02-16T10:50:40;96565.50;;;2.74;91.92
23339;BME280;11841;49.368;20.962;2023-02-16T10:55:40;96562.00;;;2.83;91.31
23339;BME280;11841;49.368;20.962;2023-02-16T10:58:12;96558.72;;;2.81;91.31
23339;BME280;11841;49.368;20.962;2023-02-16T11:00:47;96549.28;;;2.88;91.44
23339;BME280;11841;49.368;20.962;2023-02-16T11:03:16;96549.66;;;2.93;91.05
23339;BME280;11841;49.368;20.962;2023-02-16T11:05:45;96546.59;;;2.97;91.16
23339;BME280;11841;49.368;20.962;2023-02-16T11:08:11;96555.66;;;3.03;91.33
23339;BME280;11841;49.368;20.962;2023-02-16T11:13:06;96554.75;;;3.12;90.92
23339;BME280;11841;49.368;20.962;2023-02-16T11:15:34;96542.34;;;3.14;90.90
23339;BME280;11841;49.368;20.962;2023-02-16T11:18:02;96544.28;;;3.12;90.56
23339;BME280;11841;49.368;20.962;2023-02-16T11:23:14;96538.25;;;3.19;90.33
23339;BME280;11841;49.368;20.962;2023-02-16T11:25:40;96536.63;;;3.18;90.50
23339;BME280;11841;49.368;20.962;2023-02-16T11:28:07;96538.41;;;3.18;89.97
23339;BME280;11841;49.368;20.962;2023-02-16T11:30:37;96542.09;;;3.25;90.67
23339;BME280;11841;49.368;20.962;2023-02-16T11:33:19;96543.88;;;3.24;90.19
23339;BME280;11841;49.368;20.962;2023-02-16T11:35:47;96548.00;;;3.27;90.23
23339;BME280;11841;49.368;20.962;2023-02-16T11:40:52;96545.13;;;3.38;89.79
23339;BME280;11841;49.368;20.962;2023-02-16T11:43:19;96545.22;;;3.46;89.68
23339;BME280;11841;49.368;20.962;2023-02-16T11:46:03;96537.63;;;3.43;89.67
23339;BME280;11841;49.368;20.962;2023-02-16T11:48:31;96534.56;;;3.47;89.54
23339;BME280;11841;49.368;20.962;2023-02-16T11:51:00;96539.66;;;3.49;88.94
23339;BME280;11841;49.368;20.962;2023-02-16T11:53:29;96540.97;;;3.53;89.25
23339;BME280;11841;49.368;20.962;2023-02-16T11:58:41;96523.66;;;3.60;89.16
23339;BME280;11841;49.368;20.962;2023-02-16T12:01:16;96533.03;;;3.62;89.04
23339;BME280;11841;49.368;20.962;2023-02-16T12:06:26;96525.72;;;3.74;89.28
23339;BME280;11841;49.368;20.962;2023-02-16T12:14:02;96520.66;;;3.81;88.36
23339;BME280;11841;49.368;20.962;2023-02-16T12:16:53;96508.03;;;3.76;88.48
23339;BME280;11841;49.368;20.962;2023-02-16T12:19:31;96495.59;;;3.78;88.63
23339;BME280;11841;49.368;20.962;2023-02-16T12:27:30;96493.50;;;3.90;88.62
23339;BME280;11841;49.368;20.962;2023-02-16T12:33:02;96483.03;;;3.90;88.03
23339;BME280;11841;49.368;20.962;2023-02-16T12:45:47;96462.91;;;4.06;87.37
23339;BME280;11841;49.368;20.962;2023-02-16T12:50:41;96469.59;;;4.01;87.34
23339;BME280;11841;49.368;20.962;2023-02-16T12:55:43;96466.13;;;3.92;87.91
23339;BME280;11841;49.368;20.962;2023-02-16T12:58:16;96463.06;;;3.97;87.64
23339;BME280;11841;49.368;20.962;2023-02-16T13:05:40;96447.03;;;4.16;87.54
23339;BME280;11841;49.368;20.962;2023-02-16T13:08:11;96445.91;;;4.18;87.52
23339;BME280;11841;49.368;20.962;2023-02-16T13:10:57;96441.16;;;4.22;87.18
23339;BME280;11841;49.368;20.962;2023-02-16T13:13:31;96451.16;;;4.26;87.08
23339;BME280;11841;49.368;20.962;2023-02-16T13:16:05;96451.00;;;4.28;86.81
23339;BME280;11841;49.368;20.962;2023-02-16T13:18:49;96437.75;;;4.29;86.70
23339;BME280;11841;49.368;20.962;2023-02-16T13:23:56;96439.19;;;4.24;86.75
23339;BME280;11841;49.368;20.962;2023-02-16T13:44:59;96426.88;;;4.24;86.95
23339;BME280;11841;49.368;20.962;2023-02-16T13:47:32;96424.91;;;4.18;86.48
23339;BME280;11841;49.368;20.962;2023-02-16T13:50:01;96426.69;;;4.18;86.68
23339;BME280;11841;49.368;20.962;2023-02-16T13:52:35;96429.66;;;4.15;86.62
23339;BME280;11841;49.368;20.962;2023-02-16T13:55:06;96428.66;;;4.16;86.80
23339;BME280;11841;49.368;20.962;2023-02-16T14:02:59;96433.28;;;4.22;86.36
23339;BME280;11841;49.368;20.962;2023-02-16T14:05:28;96431.28;;;4.16;86.24
23339;BME280;11841;49.368;20.962;2023-02-16T14:08:09;96424.56;;;4.13;86.18
23339;BME280;11841;49.368;20.962;2023-02-16T14:13:28;96417.97;;;4.09;86.58
23339;BME280;11841;49.368;20.962;2023-02-16T14:15:57;96415.34;;;4.09;86.54
23339;BME280;11841;49.368;20.962;2023-02-16T14:21:00;96419.00;;;4.16;87.04
23339;BME280;11841;49.368;20.962;2023-02-16T14:23:27;96419.66;;;4.18;86.39
23339;BME280;11841;49.368;20.962;2023-02-16T14:26:01;96420.31;;;4.12;86.33
23339;BME280;11841;49.368;20.962;2023-02-16T14:30:58;96409.59;;;4.06;86.77
23339;BME280;11841;49.368;20.962;2023-02-16T14:36:19;96419.41;;;3.96;86.84
23339;BME280;11841;49.368;20.962;2023-02-16T14:38:49;96422.19;;;3.94;86.65
23339;BME280;11841;49.368;20.962;2023-02-16T14:41:30;96418.28;;;3.98;87.08
23339;BME280;11841;49.368;20.962;2023-02-16T14:49:26;96416.84;;;4.04;86.90
23339;BME280;11841;49.368;20.962;2023-02-16T14:57:46;96411.25;;;3.99;86.85
23339;BME280;11841;49.368;20.962;2023-02-16T15:02:58;96407.63;;;3.92;87.16
23339;BME280;11841;49.368;20.962;2023-02-16T15:05:26;96399.25;;;3.96;86.36
23339;BME280;11841;49.368;20.962;2023-02-16T15:10:28;96409.41;;;3.91;86.44
23339;BME280;11841;49.368;20.962;2023-02-16T15:12:55;96420.84;;;3.82;87.16
23339;BME280;11841;49.368;20.962;2023-02-16T15:15:27;96416.25;;;3.84;87.36
23339;BME280;11841;49.368;20.962;2023-02-16T15:17:55;96415.13;;;3.87;86.84
23339;BME280;11841;49.368;20.962;2023-02-16T15:22:57;96409.72;;;3.80;86.86
23339;BME280;11841;49.368;20.962;2023-02-16T15:30:26;96412.63;;;3.77;86.98
23339;BME280;11841;49.368;20.962;2023-02-16T15:32:57;96410.31;;;3.74;87.05
23339;BME280;11841;49.368;20.962;2023-02-16T15:35:28;96407.38;;;3.77;87.42
23339;BME280;11841;49.368;20.962;2023-02-16T15:40:28;96411.25;;;3.65;87.41
23339;BME280;11841;49.368;20.962;2023-02-16T15:43:04;96408.47;;;3.66;87.51
23339;BME280;11841;49.368;20.962;2023-02-16T15:45:32;96405.41;;;3.71;87.73
23339;BME280;11841;49.368;20.962;2023-02-16T15:48:12;96406.00;;;3.65;87.26
23339;BME280;11841;49.368;20.962;2023-02-16T15:50:40;96404.06;;;3.67;87.40
23339;BME280;11841;49.368;20.962;2023-02-16T15:53:09;96404.41;;;3.72;87.24
23339;BME280;11841;49.368;20.962;2023-02-16T15:55:43;96401.47;;;3.75;87.44
23339;BME280;11841;49.368;20.962;2023-02-16T15:58:11;96395.94;;;3.78;87.65
23339;BME280;11841;49.368;20.962;2023-02-16T16:00:40;96403.63;;;3.80;87.40
23339;BME280;11841;49.368;20.962;2023-02-16T16:03:11;96411.00;;;3.76;87.50
23339;BME280;11841;49.368;20.962;2023-02-16T16:05:39;96406.56;;;3.77;87.23
23339;BME280;11841;49.368;20.962;2023-02-16T16:08:09;96402.97;;;3.78;87.01